sensor_id;sensor_type;location;lat;lon;timestamp;pressure;altitude;pressure_sealevel;temperature;humidity
18784;BME280;9520;50.954;6.968;2022-12-29T00:00:01;99865.78;;;18.40;48.51
18784;BME280;9520;50.954;6.968;2022-12-29T00:00:33;99850.78;;;18.37;48.20
18784;BME280;9520;50.954;6.968;2022-12-29T00:00:54;99851.66;;;18.38;48.42
18784;BME280;9520;50.954;6.968;2022-12-29T00:01:17;99856.31;;;18.34;48.50
18784;BME280;9520;50.954;6.968;2022-12-29T00:01:39;99852.78;;;18.34;48.53
18784;BME280;9520;50.954;6.968;2022-12-29T00:02:01;99855.47;;;18.34;48.67
18784;BME280;9520;50.954;6.968;2022-12-29T00:02:22;99847.47;;;18.34;48.72
18784;BME280;9520;50.954;6.968;2022-12-29T00:02:45;99845.72;;;18.33;48.82
18784;BME280;9520;50.954;6.968;2022-12-29T00:03:07;99854.00;;;18.28;48.83
18784;BME280;9520;50.954;6.968;2022-12-29T00:03:29;99855.63;;;18.31;48.83
18784;BME280;9520;50.954;6.968;2022-12-29T00:03:51;99847.72;;;18.29;48.87
18784;BME280;9520;50.954;6.968;2022-12-29T00:04:13;99850.47;;;18.28;48.81
18784;BME280;9520;50.954;6.968;2022-12-29T00:04:37;99810.78;;;18.07;48.82
18784;BME280;9520;50.954;6.968;2022-12-29T00:04:58;99827.75;;;18.21;49.03
18784;BME280;9520;50.954;6.968;2022-12-29T00:05:20;99847.53;;;18.32;49.29
18784;BME280;9520;50.954;6.968;2022-12-29T00:05:42;99841.69;;;18.26;49.21
18784;BME280;9520;50.954;6.968;2022-12-29T00:06:06;99850.09;;;18.20;49.35
18784;BME280;9520;50.954;6.968;2022-12-29T00:06:29;99795.69;;;17.92;49.28
18784;BME280;9520;50.954;6.968;2022-12-29T00:06:52;99812.94;;;18.01;49.13
18784;BME280;9520;50.954;6.968;2022-12-29T00:07:14;99844.56;;;18.23;48.98
18784;BME280;9520;50.954;6.968;2022-12-29T00:07:38;99841.88;;;18.23;49.02
18784;BME280;9520;50.954;6.968;2022-12-29T00:08:00;99838.28;;;18.24;49.06
18784;BME280;9520;50.954;6.968;2022-12-29T00:08:21;99839.31;;;18.21;48.90
18784;BME280;9520;50.954;6.968;2022-12-29T00:09:00;99835.69;;;18.22;48.76
18784;BME280;9520;50.954;6.968;2022-12-29T00:09:23;99839.81;;;18.28;48.79
18784;BME280;9520;50.954;6.968;2022-12-29T00:09:46;99830.78;;;18.30;48.68
18784;BME280;9520;50.954;6.968;2022-12-29T00:10:08;99829.13;;;18.28;48.83
18784;BME280;9520;50.954;6.968;2022-12-29T00:10:30;99838.00;;;18.28;48.84
18784;BME280;9520;50.954;6.968;2022-12-29T00:10:55;99811.09;;;18.17;48.78
18784;BME280;9520;50.954;6.968;2022-12-29T00:11:18;99826.38;;;18.29;48.93
18784;BME280;9520;50.954;6.968;2022-12-29T00:11:41;99821.13;;;18.28;48.77
18784;BME280;9520;50.954;6.968;2022-12-29T00:12:04;99817.41;;;18.30;48.75
18784;BME280;9520;50.954;6.968;2022-12-29T00:12:27;99826.25;;;18.31;48.62
18784;BME280;9520;50.954;6.968;2022-12-29T00:13:08;99825.69;;;18.26;48.75
18784;BME280;9520;50.954;6.968;2022-12-29T00:13:49;99826.13;;;18.04;49.21
18784;BME280;9520;50.954;6.968;2022-12-29T00:14:29;99827.56;;;18.09;49.18
18784;BME280;9520;50.954;6.968;2022-12-29T00:15:10;99822.53;;;18.19;49.19
18784;BME280;9520;50.954;6.968;2022-12-29T00:15:50;99827.97;;;18.18;49.10
18784;BME280;9520;50.954;6.968;2022-12-29T00:16:12;99834.16;;;18.18;49.11
18784;BME280;9520;50.954;6.968;2022-12-29T00:16:35;99821.59;;;18.20;48.94
18784;BME280;9520;50.954;6.968;2022-12-29T00:16:58;99824.34;;;18.19;48.94
18784;BME280;9520;50.954;6.968;2022-12-29T00:17:20;99796.09;;;18.00;49.05
18784;BME280;9520;50.954;6.968;2022-12-29T00:17:42;99832.94;;;18.24;48.88
18784;BME280;9520;50.954;6.968;2022-12-29T00:18:04;99837.41;;;18.23;49.00
18784;BME280;9520;50.954;6.968;2022-12-29T00:18:26;99827.59;;;18.24;49.12
18784;BME280;9520;50.954;6.968;2022-12-29T00:18:50;99824.84;;;18.25;49.36
18784;BME280;9520;50.954;6.968;2022-12-29T00:19:12;99831.22;;;18.23;49.23
18784;BME280;9520;50.954;6.968;2022-12-29T00:19:49;99827.59;;;18.24;49.26
18784;BME280;9520;50.954;6.968;2022-12-29T00:20:29;99827.41;;;18.27;49.26
18784;BME280;9520;50.954;6.968;2022-12-29T00:21:13;99831.41;;;18.20;49.35
18784;BME280;9520;50.954;6.968;2022-12-29T00:21:54;99820.91;;;18.17;49.47
18784;BME280;9520;50.954;6.968;2022-12-29T00:22:34;99829.03;;;18.15;49.39
18784;BME280;9520;50.954;6.968;2022-12-29T00:23:14;99828.75;;;18.20;49.38
18784;BME280;9520;50.954;6.968;2022-12-29T00:23:54;99814.34;;;18.22;49.19
18784;BME280;9520;50.954;6.968;2022-12-29T00:24:43;99816.06;;;18.23;49.30
18784;BME280;9520;50.954;6.968;2022-12-29T00:25:24;99820.63;;;18.21;49.11
18784;BME280;9520;50.954;6.968;2022-12-29T00:26:12;99809.47;;;18.15;49.34
18784;BME280;9520;50.954;6.968;2022-12-29T00:26:58;99818.81;;;18.22;49.44
18784;BME280;9520;50.954;6.968;2022-12-29T00:27:39;99820.63;;;18.21;49.42
18784;BME280;9520;50.954;6.968;2022-12-29T00:28:27;99817.00;;;18.22;49.60
18784;BME280;9520;50.954;6.968;2022-12-29T00:29:08;99802.13;;;18.18;49.24
18784;BME280;9520;50.954;6.968;2022-12-29T00:29:48;99808.06;;;18.23;49.11
18784;BME280;9520;50.954;6.968;2022-12-29T00:30:29;99800.41;;;18.17;49.14
18784;BME280;9520;50.954;6.968;2022-12-29T00:31:11;99808.69;;;18.12;49.52
18784;BME280;9520;50.954;6.968;2022-12-29T00:31:52;99818.06;;;18.20;49.59
18784;BME280;9520;50.954;6.968;2022-12-29T00:32:33;99817.09;;;18.21;49.21
18784;BME280;9520;50.954;6.968;2022-12-29T00:33:15;99802.78;;;18.22;49.42
18784;BME280;9520;50.954;6.968;2022-12-29T00:33:56;99804.59;;;18.21;49.40
18784;BME280;9520;50.954;6.968;2022-12-29T00:34:37;99805.47;;;18.22;49.39
18784;BME280;9520;50.954;6.968;2022-12-29T00:35:25;99795.34;;;18.12;49.26
18784;BME280;9520;50.954;6.968;2022-12-29T00:35:53;99795.84;;;18.19;49.40
18784;BME280;9520;50.954;6.968;2022-12-29T00:36:18;99799.38;;;18.20;49.34
18784;BME280;9520;50.954;6.968;2022-12-29T00:36:42;99802.06;;;18.20;49.54
18784;BME280;9520;50.954;6.968;2022-12-29T00:37:17;99802.91;;;18.20;49.47
18784;BME280;9520;50.954;6.968;2022-12-29T00:38:14;99800.91;;;18.24;49.04
18784;BME280;9520;50.954;6.968;2022-12-29T00:39:14;99793.19;;;18.19;49.28
18784;BME280;9520;50.954;6.968;2022-12-29T00:40:01;99802.78;;;18.22;49.43
18784;BME280;9520;50.954;6.968;2022-12-29T00:40:46;99802.78;;;18.22;49.40
18784;BME280;9520;50.954;6.968;2022-12-29T00:41:36;99801.94;;;18.21;49.82
18784;BME280;9520;50.954;6.968;2022-12-29T00:42:19;99804.03;;;18.16;49.50
18784;BME280;9520;50.954;6.968;2022-12-29T00:43:14;99795.94;;;18.18;49.16
18784;BME280;9520;50.954;6.968;2022-12-29T00:43:58;99803.00;;;18.19;49.31
18784;BME280;9520;50.954;6.968;2022-12-29T00:44:40;99795.34;;;18.12;49.43
18784;BME280;9520;50.954;6.968;2022-12-29T00:45:16;99795.28;;;18.14;49.32
18784;BME280;9520;50.954;6.968;2022-12-29T00:45:42;99789.50;;;18.06;49.17
18784;BME280;9520;50.954;6.968;2022-12-29T00:46:29;99785.72;;;18.10;49.33
18784;BME280;9520;50.954;6.968;2022-12-29T00:47:06;99797.47;;;18.22;49.24
18784;BME280;9520;50.954;6.968;2022-12-29T00:47:33;99799.19;;;18.23;49.16
18784;BME280;9520;50.954;6.968;2022-12-29T00:47:58;99794.78;;;18.22;48.99
18784;BME280;9520;50.954;6.968;2022-12-29T00:48:36;99799.97;;;18.25;48.93
18784;BME280;9520;50.954;6.968;2022-12-29T00:49:21;99798.91;;;18.27;49.09
18784;BME280;9520;50.954;6.968;2022-12-29T00:49:55;99797.97;;;18.28;49.24
18784;BME280;9520;50.954;6.968;2022-12-29T00:50:26;99804.31;;;18.26;49.40
18784;BME280;9520;50.954;6.968;2022-12-29T00:50:55;99795.56;;;18.24;49.06
18784;BME280;9520;50.954;6.968;2022-12-29T00:51:26;99795.72;;;18.21;49.02
18784;BME280;9520;50.954;6.968;2022-12-29T00:52:05;99784.13;;;18.22;48.96
18784;BME280;9520;50.954;6.968;2022-12-29T00:52:44;99785.84;;;18.23;48.88
18784;BME280;9520;50.954;6.968;2022-12-29T00:53:11;99786.97;;;18.19;48.85
18784;BME280;9520;50.954;6.968;2022-12-29T00:53:44;99790.41;;;18.21;49.18
18784;BME280;9520;50.954;6.968;2022-12-29T00:54:10;99792.13;;;18.22;49.48
18784;BME280;9520;50.954;6.968;2022-12-29T00:54:38;99782.00;;;18.12;49.50
18784;BME280;9520;50.954;6.968;2022-12-29T00:55:15;99786.97;;;18.19;49.25
18784;BME280;9520;50.954;6.968;2022-12-29T00:55:39;99785.91;;;18.21;49.01
18784;BME280;9520;50.954;6.968;2022-12-29T00:56:04;99785.63;;;18.26;49.05
18784;BME280;9520;50.954;6.968;2022-12-29T00:56:39;99780.88;;;18.31;48.62
18784;BME280;9520;50.954;6.968;2022-12-29T00:57:18;99789.38;;;18.37;48.49
18784;BME280;9520;50.954;6.968;2022-12-29T00:57:44;99783.75;;;18.42;48.41
18784;BME280;9520;50.954;6.968;2022-12-29T00:58:06;99786.34;;;18.43;48.36
18784;BME280;9520;50.954;6.968;2022-12-29T00:58:28;99788.72;;;18.48;48.32
18784;BME280;9520;50.954;6.968;2022-12-29T00:58:51;99790.31;;;18.50;47.98
18784;BME280;9520;50.954;6.968;2022-12-29T00:59:13;99794.44;;;18.42;48.03
18784;BME280;9520;50.954;6.968;2022-12-29T00:59:35;99796.06;;;18.30;48.18
18784;BME280;9520;50.954;6.968;2022-12-29T00:59:57;99794.63;;;18.39;48.07
18784;BME280;9520;50.954;6.968;2022-12-29T01:00:19;99794.44;;;18.42;48.03
18784;BME280;9520;50.954;6.968;2022-12-29T01:00:41;99796.81;;;18.46;48.17
18784;BME280;9520;50.954;6.968;2022-12-29T01:01:04;99771.84;;;18.33;48.28
18784;BME280;9520;50.954;6.968;2022-12-29T01:01:27;99792.88;;;18.53;48.04
18784;BME280;9520;50.954;6.968;2022-12-29T01:01:51;99792.66;;;18.57;48.02
18784;BME280;9520;50.954;6.968;2022-12-29T01:02:15;99795.03;;;18.61;47.76
18784;BME280;9520;50.954;6.968;2022-12-29T01:02:37;99797.72;;;18.61;47.73
18784;BME280;9520;50.954;6.968;2022-12-29T01:02:59;99797.13;;;18.56;47.82
18784;BME280;9520;50.954;6.968;2022-12-29T01:03:20;99796.00;;;18.60;47.75
18784;BME280;9520;50.954;6.968;2022-12-29T01:03:42;99797.63;;;18.63;47.77
18784;BME280;9520;50.954;6.968;2022-12-29T01:04:04;99795.81;;;18.63;47.81
18784;BME280;9520;50.954;6.968;2022-12-29T01:04:27;99799.44;;;18.62;48.09
18784;BME280;9520;50.954;6.968;2022-12-29T01:04:49;99790.25;;;18.38;48.02
18784;BME280;9520;50.954;6.968;2022-12-29T01:05:11;99795.22;;;18.44;47.93
18784;BME280;9520;50.954;6.968;2022-12-29T01:05:35;99797.41;;;18.51;47.75
18784;BME280;9520;50.954;6.968;2022-12-29T01:06:00;99791.97;;;18.53;47.79
18784;BME280;9520;50.954;6.968;2022-12-29T01:06:22;99791.84;;;18.40;47.93
18784;BME280;9520;50.954;6.968;2022-12-29T01:06:45;99795.00;;;18.47;47.76
18784;BME280;9520;50.954;6.968;2022-12-29T01:07:09;99783.31;;;18.49;47.93
18784;BME280;9520;50.954;6.968;2022-12-29T01:07:32;99785.72;;;18.54;47.87
18784;BME280;9520;50.954;6.968;2022-12-29T01:07:56;99788.38;;;18.54;47.77
18784;BME280;9520;50.954;6.968;2022-12-29T01:08:18;99799.59;;;18.45;47.85
18784;BME280;9520;50.954;6.968;2022-12-29T01:08:40;99798.34;;;18.50;47.91
18784;BME280;9520;50.954;6.968;2022-12-29T01:09:02;99792.91;;;18.52;47.79
18784;BME280;9520;50.954;6.968;2022-12-29T01:09:43;99785.88;;;18.65;47.75
18784;BME280;9520;50.954;6.968;2022-12-29T01:10:38;99793.16;;;18.63;47.72
18784;BME280;9520;50.954;6.968;2022-12-29T01:11:00;99794.09;;;18.62;47.83
18784;BME280;9520;50.954;6.968;2022-12-29T01:11:24;99791.22;;;18.65;47.91
18784;BME280;9520;50.954;6.968;2022-12-29T01:11:47;99792.94;;;18.66;47.83
18784;BME280;9520;50.954;6.968;2022-12-29T01:12:09;99793.16;;;18.63;47.57
18784;BME280;9520;50.954;6.968;2022-12-29T01:12:33;99791.44;;;18.62;47.64
18784;BME280;9520;50.954;6.968;2022-12-29T01:13:06;99797.69;;;18.47;48.22
18784;BME280;9520;50.954;6.968;2022-12-29T01:13:28;99760.28;;;18.19;48.36
18784;BME280;9520;50.954;6.968;2022-12-29T01:13:50;99790.16;;;18.39;48.44
18784;BME280;9520;50.954;6.968;2022-12-29T01:14:12;99777.25;;;18.32;48.28
18784;BME280;9520;50.954;6.968;2022-12-29T01:14:34;99790.03;;;18.41;48.41
18784;BME280;9520;50.954;6.968;2022-12-29T01:14:57;99787.38;;;18.41;48.57
18784;BME280;9520;50.954;6.968;2022-12-29T01:15:19;99789.00;;;18.43;48.36
18784;BME280;9520;50.954;6.968;2022-12-29T01:15:49;99787.19;;;18.44;48.49
18784;BME280;9520;50.954;6.968;2022-12-29T01:16:11;99787.00;;;18.47;48.40
18784;BME280;9520;50.954;6.968;2022-12-29T01:17:18;99794.84;;;18.50;48.22
18784;BME280;9520;50.954;6.968;2022-12-29T01:17:39;99798.22;;;18.53;48.17
18784;BME280;9520;50.954;6.968;2022-12-29T01:18:02;99790.44;;;18.49;48.00
18784;BME280;9520;50.954;6.968;2022-12-29T01:18:25;99805.69;;;18.47;47.92
18784;BME280;9520;50.954;6.968;2022-12-29T01:18:47;99805.53;;;18.50;48.09
18784;BME280;9520;50.954;6.968;2022-12-29T01:19:09;99797.25;;;18.54;47.97
18784;BME280;9520;50.954;6.968;2022-12-29T01:19:31;99804.22;;;18.57;48.03
18784;BME280;9520;50.954;6.968;2022-12-29T01:19:54;99810.31;;;18.59;47.94
18784;BME280;9520;50.954;6.968;2022-12-29T01:20:16;99805.06;;;18.58;47.92
18784;BME280;9520;50.954;6.968;2022-12-29T01:20:38;99790.06;;;18.55;48.10
18784;BME280;9520;50.954;6.968;2022-12-29T01:21:01;99801.34;;;18.60;47.94
18784;BME280;9520;50.954;6.968;2022-12-29T01:21:25;99791.50;;;18.61;47.93
18784;BME280;9520;50.954;6.968;2022-12-29T01:21:47;99795.16;;;18.60;47.95
18784;BME280;9520;50.954;6.968;2022-12-29T01:22:09;99800.88;;;18.68;47.60
18784;BME280;9520;50.954;6.968;2022-12-29T01:22:31;99803.53;;;18.68;47.57
18784;BME280;9520;50.954;6.968;2022-12-29T01:22:54;99799.22;;;18.65;47.55
18784;BME280;9520;50.954;6.968;2022-12-29T01:23:16;99778.50;;;18.40;47.79
18784;BME280;9520;50.954;6.968;2022-12-29T01:23:39;99806.28;;;18.52;47.83
18784;BME280;9520;50.954;6.968;2022-12-29T01:24:01;99810.41;;;18.58;47.69
18784;BME280;9520;50.954;6.968;2022-12-29T01:24:24;99806.09;;;18.55;47.72
18784;BME280;9520;50.954;6.968;2022-12-29T01:24:47;99817.75;;;18.54;47.78
18784;BME280;9520;50.954;6.968;2022-12-29T01:25:10;99800.94;;;18.52;47.92
18784;BME280;9520;50.954;6.968;2022-12-29T01:25:32;99815.84;;;18.56;47.78
18784;BME280;9520;50.954;6.968;2022-12-29T01:25:55;99790.31;;;18.36;48.07
18784;BME280;9520;50.954;6.968;2022-12-29T01:26:18;99809.50;;;18.43;47.95
18784;BME280;9520;50.954;6.968;2022-12-29T01:26:40;99808.28;;;18.48;47.98
18784;BME280;9520;50.954;6.968;2022-12-29T01:27:03;99804.47;;;18.52;48.02
18784;BME280;9520;50.954;6.968;2022-12-29T01:27:25;99804.28;;;18.55;47.76
18784;BME280;9520;50.954;6.968;2022-12-29T01:27:48;99811.28;;;18.58;47.74
18784;BME280;9520;50.954;6.968;2022-12-29T01:28:10;99805.72;;;18.61;47.68
18784;BME280;9520;50.954;6.968;2022-12-29T01:28:32;99799.19;;;18.51;47.76
18784;BME280;9520;50.954;6.968;2022-12-29T01:28:54;99804.00;;;18.60;47.95
18784;BME280;9520;50.954;6.968;2022-12-29T01:29:17;99803.06;;;18.61;48.12
18784;BME280;9520;50.954;6.968;2022-12-29T01:29:40;99805.44;;;18.66;47.90
18784;BME280;9520;50.954;6.968;2022-12-29T01:30:03;99799.16;;;18.67;47.65
18784;BME280;9520;50.954;6.968;2022-12-29T01:30:26;99785.13;;;18.63;47.46
18784;BME280;9520;50.954;6.968;2022-12-29T01:30:48;99801.66;;;18.70;47.50
18784;BME280;9520;50.954;6.968;2022-12-29T01:31:12;99796.41;;;18.68;47.31
18784;BME280;9520;50.954;6.968;2022-12-29T01:31:35;99800.00;;;18.67;47.37
18784;BME280;9520;50.954;6.968;2022-12-29T01:31:57;99798.97;;;18.70;46.99
18784;BME280;9520;50.954;6.968;2022-12-29T01:32:20;99805.16;;;18.70;47.17
18784;BME280;9520;50.954;6.968;2022-12-29T01:32:42;99773.88;;;18.58;47.13
18784;BME280;9520;50.954;6.968;2022-12-29T01:33:04;99786.84;;;18.64;46.92
18784;BME280;9520;50.954;6.968;2022-12-29T01:33:26;99780.75;;;18.62;47.07
18784;BME280;9520;50.954;6.968;2022-12-29T01:33:48;99782.25;;;18.66;47.29
18784;BME280;9520;50.954;6.968;2022-12-29T01:34:11;99776.56;;;18.58;47.37
18784;BME280;9520;50.954;6.968;2022-12-29T01:34:33;99757.91;;;18.42;47.26
18784;BME280;9520;50.954;6.968;2022-12-29T01:34:54;99791.72;;;18.58;47.23
18784;BME280;9520;50.954;6.968;2022-12-29T01:35:16;99794.09;;;18.62;47.19
18784;BME280;9520;50.954;6.968;2022-12-29T01:35:38;99798.41;;;18.65;47.28
18784;BME280;9520;50.954;6.968;2022-12-29T01:36:03;99793.72;;;18.54;47.24
18784;BME280;9520;50.954;6.968;2022-12-29T01:36:26;99789.91;;;18.58;47.29
18784;BME280;9520;50.954;6.968;2022-12-29T01:36:48;99786.56;;;18.54;47.04
18784;BME280;9520;50.954;6.968;2022-12-29T01:37:10;99798.56;;;18.62;47.00
18784;BME280;9520;50.954;6.968;2022-12-29T01:37:34;99780.94;;;18.59;47.09
18784;BME280;9520;50.954;6.968;2022-12-29T01:37:56;99790.97;;;18.70;47.08
18784;BME280;9520;50.954;6.968;2022-12-29T01:38:18;99802.69;;;18.67;46.96
18784;BME280;9520;50.954;6.968;2022-12-29T01:38:40;99792.38;;;18.61;46.95
18784;BME280;9520;50.954;6.968;2022-12-29T01:39:03;99790.66;;;18.60;46.95
18784;BME280;9520;50.954;6.968;2022-12-29T01:39:25;99781.88;;;18.58;46.75
18784;BME280;9520;50.954;6.968;2022-12-29T01:39:47;99782.47;;;18.63;46.62
18784;BME280;9520;50.954;6.968;2022-12-29T01:40:10;99795.25;;;18.72;46.55
18784;BME280;9520;50.954;6.968;2022-12-29T01:40:32;99792.06;;;18.80;46.35
18784;BME280;9520;50.954;6.968;2022-12-29T01:40:55;99784.06;;;18.80;46.18
18784;BME280;9520;50.954;6.968;2022-12-29T01:41:17;99789.59;;;18.77;46.38
18784;BME280;9520;50.954;6.968;2022-12-29T01:41:39;99776.53;;;18.72;46.29
18784;BME280;9520;50.954;6.968;2022-12-29T01:42:02;99784.06;;;18.80;46.09
18784;BME280;9520;50.954;6.968;2022-12-29T01:42:25;99782.81;;;18.85;45.94
18784;BME280;9520;50.954;6.968;2022-12-29T01:42:47;99782.81;;;18.85;45.85
18784;BME280;9520;50.954;6.968;2022-12-29T01:43:10;99793.13;;;18.91;45.97
18784;BME280;9520;50.954;6.968;2022-12-29T01:43:39;99786.06;;;18.90;45.77
18784;BME280;9520;50.954;6.968;2022-12-29T01:44:01;99787.03;;;18.75;45.65
18784;BME280;9520;50.954;6.968;2022-12-29T01:44:55;99786.56;;;18.83;45.58
18784;BME280;9520;50.954;6.968;2022-12-29T01:45:18;99797.25;;;18.83;45.41
18784;BME280;9520;50.954;6.968;2022-12-29T01:45:43;99799.06;;;18.82;45.49
18784;BME280;9520;50.954;6.968;2022-12-29T01:46:13;99794.75;;;18.80;45.37
18784;BME280;9520;50.954;6.968;2022-12-29T01:46:41;99788.94;;;18.73;45.30
18784;BME280;9520;50.954;6.968;2022-12-29T01:47:08;99795.25;;;18.72;45.31
18784;BME280;9520;50.954;6.968;2022-12-29T01:47:33;99796.09;;;18.87;45.24
18784;BME280;9520;50.954;6.968;2022-12-29T01:48:01;99790.44;;;18.91;45.13
18784;BME280;9520;50.954;6.968;2022-12-29T01:48:23;99794.56;;;18.97;45.01
18784;BME280;9520;50.954;6.968;2022-12-29T01:48:46;99785.47;;;18.99;44.67
18784;BME280;9520;50.954;6.968;2022-12-29T01:49:12;99785.09;;;18.91;44.82
18784;BME280;9520;50.954;6.968;2022-12-29T01:49:38;99790.81;;;18.85;44.69
18784;BME280;9520;50.954;6.968;2022-12-29T01:50:03;99788.00;;;18.74;44.95
18784;BME280;9520;50.954;6.968;2022-12-29T01:50:29;99790.47;;;18.77;44.83
18784;BME280;9520;50.954;6.968;2022-12-29T01:50:53;99798.69;;;18.74;45.21
18784;BME280;9520;50.954;6.968;2022-12-29T01:51:16;99800.09;;;18.66;45.61
18784;BME280;9520;50.954;6.968;2022-12-29T01:51:42;99792.88;;;18.53;45.42
18784;BME280;9520;50.954;6.968;2022-12-29T01:52:06;99791.91;;;18.54;45.47
18784;BME280;9520;50.954;6.968;2022-12-29T01:52:32;99799.72;;;18.58;45.19
18784;BME280;9520;50.954;6.968;2022-12-29T01:53:00;99781.59;;;18.63;45.38
18784;BME280;9520;50.954;6.968;2022-12-29T01:53:26;99789.53;;;18.64;45.18
18784;BME280;9520;50.954;6.968;2022-12-29T01:53:50;99790.66;;;18.60;44.89
18784;BME280;9520;50.954;6.968;2022-12-29T01:54:17;99792.28;;;18.63;44.91
18784;BME280;9520;50.954;6.968;2022-12-29T01:54:43;99781.81;;;18.60;44.89
18784;BME280;9520;50.954;6.968;2022-12-29T01:55:10;99790.53;;;18.33;44.98
18784;BME280;9520;50.954;6.968;2022-12-29T01:55:36;99792.63;;;18.42;45.17
18784;BME280;9520;50.954;6.968;2022-12-29T01:56:04;99791.97;;;18.39;44.98
18784;BME280;9520;50.954;6.968;2022-12-29T01:56:28;99797.03;;;18.43;45.08
18784;BME280;9520;50.954;6.968;2022-12-29T01:56:53;99778.88;;;18.20;45.14
18784;BME280;9520;50.954;6.968;2022-12-29T01:57:21;99788.88;;;18.17;45.10
18784;BME280;9520;50.954;6.968;2022-12-29T01:57:46;99780.56;;;18.07;45.36
18784;BME280;9520;50.954;6.968;2022-12-29T01:58:10;99780.47;;;18.08;45.34
18784;BME280;9520;50.954;6.968;2022-12-29T01:58:37;99778.19;;;18.17;45.57
18784;BME280;9520;50.954;6.968;2022-12-29T01:59:04;99780.78;;;18.18;45.53
18784;BME280;9520;50.954;6.968;2022-12-29T01:59:29;99781.00;;;18.29;45.33
18784;BME280;9520;50.954;6.968;2022-12-29T01:59:56;99780.50;;;18.37;45.13
18784;BME280;9520;50.954;6.968;2022-12-29T02:00:20;99772.28;;;18.26;44.89
18784;BME280;9520;50.954;6.968;2022-12-29T02:00:42;99774.97;;;18.26;44.95
18784;BME280;9520;50.954;6.968;2022-12-29T02:01:04;99773.84;;;18.30;45.36
18784;BME280;9520;50.954;6.968;2022-12-29T02:01:29;99775.81;;;18.40;45.20
18784;BME280;9520;50.954;6.968;2022-12-29T02:01:55;99766.88;;;18.41;44.88
18784;BME280;9520;50.954;6.968;2022-12-29T02:02:17;99778.31;;;18.43;44.71
18784;BME280;9520;50.954;6.968;2022-12-29T02:02:40;99777.47;;;18.43;44.54
18784;BME280;9520;50.954;6.968;2022-12-29T02:03:05;99775.16;;;18.37;44.50
18784;BME280;9520;50.954;6.968;2022-12-29T02:03:30;99767.25;;;18.35;43.99
18784;BME280;9520;50.954;6.968;2022-12-29T02:03:54;99767.72;;;18.42;44.08
18784;BME280;9520;50.954;6.968;2022-12-29T02:04:16;99772.50;;;18.51;44.00
18784;BME280;9520;50.954;6.968;2022-12-29T02:04:41;99770.81;;;18.50;44.21
18784;BME280;9520;50.954;6.968;2022-12-29T02:05:10;99757.06;;;18.56;44.37
18784;BME280;9520;50.954;6.968;2022-12-29T02:05:36;99769.84;;;18.65;43.86
18784;BME280;9520;50.954;6.968;2022-12-29T02:06:03;99764.03;;;18.73;43.99
18784;BME280;9520;50.954;6.968;2022-12-29T02:06:35;99764.41;;;18.81;43.82
18784;BME280;9520;50.954;6.968;2022-12-29T02:07:02;99763.16;;;18.86;43.24
18784;BME280;9520;50.954;6.968;2022-12-29T02:07:28;99744.66;;;18.83;43.41
18784;BME280;9520;50.954;6.968;2022-12-29T02:07:52;99764.09;;;18.99;43.32
18784;BME280;9520;50.954;6.968;2022-12-29T02:08:14;99752.56;;;18.99;43.25
18784;BME280;9520;50.954;6.968;2022-12-29T02:08:37;99749.69;;;19.02;43.20
18784;BME280;9520;50.954;6.968;2022-12-29T02:09:00;99757.13;;;18.97;42.94
18784;BME280;9520;50.954;6.968;2022-12-29T02:09:22;99755.91;;;18.88;42.90
18784;BME280;9520;50.954;6.968;2022-12-29T02:09:47;99762.19;;;19.02;42.72
18784;BME280;9520;50.954;6.968;2022-12-29T02:10:10;99761.03;;;19.06;42.74
18784;BME280;9520;50.954;6.968;2022-12-29T02:10:33;99773.22;;;19.10;42.97
18784;BME280;9520;50.954;6.968;2022-12-29T02:10:58;99760.41;;;19.15;42.67
18784;BME280;9520;50.954;6.968;2022-12-29T02:11:23;99767.41;;;19.17;42.49
18784;BME280;9520;50.954;6.968;2022-12-29T02:11:47;99761.09;;;19.18;42.52
18784;BME280;9520;50.954;6.968;2022-12-29T02:12:12;99757.97;;;19.12;42.51
18784;BME280;9520;50.954;6.968;2022-12-29T02:12:35;99754.63;;;19.08;42.69
18784;BME280;9520;50.954;6.968;2022-12-29T02:12:59;99762.22;;;19.14;42.89
18784;BME280;9520;50.954;6.968;2022-12-29T02:13:20;99764.25;;;19.11;42.78
18784;BME280;9520;50.954;6.968;2022-12-29T02:13:43;99762.22;;;19.14;42.62
18784;BME280;9520;50.954;6.968;2022-12-29T02:14:08;99741.22;;;18.81;42.53
18784;BME280;9520;50.954;6.968;2022-12-29T02:14:31;99754.25;;;19.00;42.50
18784;BME280;9520;50.954;6.968;2022-12-29T02:14:57;99752.56;;;18.99;42.39
18784;BME280;9520;50.954;6.968;2022-12-29T02:15:28;99750.44;;;19.04;42.36
18784;BME280;9520;50.954;6.968;2022-12-29T02:16:06;99751.97;;;19.08;42.26
18784;BME280;9520;50.954;6.968;2022-12-29T02:16:48;99765.56;;;18.77;42.48
18784;BME280;9520;50.954;6.968;2022-12-29T02:17:22;99753.34;;;18.87;42.47
18784;BME280;9520;50.954;6.968;2022-12-29T02:18:02;99759.03;;;18.95;42.28
18784;BME280;9520;50.954;6.968;2022-12-29T02:18:36;99764.09;;;18.99;42.12
18784;BME280;9520;50.954;6.968;2022-12-29T02:19:25;99767.81;;;18.97;42.53
18784;BME280;9520;50.954;6.968;2022-12-29T02:20:09;99761.09;;;18.77;42.49
18784;BME280;9520;50.954;6.968;2022-12-29T02:20:56;99758.72;;;18.99;42.28
18784;BME280;9520;50.954;6.968;2022-12-29T02:21:41;99750.31;;;19.06;42.03
18784;BME280;9520;50.954;6.968;2022-12-29T02:22:18;99746.88;;;19.18;41.87
18784;BME280;9520;50.954;6.968;2022-12-29T02:22:56;99751.81;;;19.24;41.77
18784;BME280;9520;50.954;6.968;2022-12-29T02:23:45;99745.94;;;19.05;41.63
18784;BME280;9520;50.954;6.968;2022-12-29T02:24:24;99752.81;;;18.94;41.93
18784;BME280;9520;50.954;6.968;2022-12-29T02:25:15;99755.97;;;19.01;41.91
18784;BME280;9520;50.954;6.968;2022-12-29T02:26:11;99754.38;;;18.98;42.22
18784;BME280;9520;50.954;6.968;2022-12-29T02:26:56;99757.31;;;19.08;41.92
18784;BME280;9520;50.954;6.968;2022-12-29T02:27:51;99739.47;;;19.09;41.75
18784;BME280;9520;50.954;6.968;2022-12-29T02:29:48;99754.50;;;19.24;41.49
18784;BME280;9520;50.954;6.968;2022-12-29T02:30:34;99743.47;;;19.02;41.81
18784;BME280;9520;50.954;6.968;2022-12-29T02:31:03;99747.31;;;18.97;42.49
18784;BME280;9520;50.954;6.968;2022-12-29T02:31:31;99740.03;;;18.99;42.11
18784;BME280;9520;50.954;6.968;2022-12-29T02:32:07;99734.59;;;19.01;42.00
18784;BME280;9520;50.954;6.968;2022-12-29T02:32:37;99740.09;;;19.12;41.87